createdAt,value
2023-04-02T00:01:23.953Z,81.89
2023-04-02T00:03:54.004Z,81.93
2023-04-02T00:06:33.138Z,82.07
2023-04-02T00:09:04.747Z,81.93
2023-04-02T00:11:37.594Z,82.03
2023-04-02T00:14:13.323Z,81.89
2023-04-02T00:16:40.683Z,81.73
2023-04-02T00:19:15.542Z,81.94
2023-04-02T00:21:45.454Z,81.93
2023-04-02T00:24:17.942Z,82.00
2023-04-02T00:26:48.041Z,82.03
2023-04-02T00:29:16.451Z,82.05
2023-04-02T00:31:46.553Z,82.02
2023-04-02T00:34:26.217Z,82.24
2023-04-02T00:36:53.626Z,82.19
2023-04-02T00:39:33.007Z,81.98
2023-04-02T00:42:07.577Z,82.02
2023-04-02T00:44:38.691Z,82.11
2023-04-02T00:47:24.490Z,82.08
2023-04-02T00:49:59.996Z,82.25
2023-04-02T00:52:31.143Z,82.06
2023-04-02T00:55:05.226Z,82.20
2023-04-02T00:57:33.713Z,82.17
2023-04-02T01:00:21.744Z,82.16
2023-04-02T01:03:20.352Z,82.03
2023-04-02T01:05:50.464Z,82.05
2023-04-02T01:08:23.118Z,82.11
2023-04-02T01:11:20.815Z,81.95
2023-04-02T01:14:04.056Z,81.93
2023-04-02T01:16:31.023Z,81.71
2023-04-02T01:19:06.216Z,81.78
2023-04-02T01:21:34.040Z,81.55
2023-04-02T01:24:05.358Z,81.44
2023-04-02T01:26:48.139Z,81.37
2023-04-02T01:29:30.660Z,81.47
2023-04-02T01:32:02.118Z,81.29
2023-04-02T01:34:31.014Z,81.17
2023-04-02T01:37:13.303Z,81.25
2023-04-02T01:40:11.384Z,81.14
2023-04-02T01:43:08.951Z,81.00
2023-04-02T01:45:36.903Z,80.73
2023-04-02T01:48:24.728Z,80.64
2023-04-02T01:50:55.084Z,80.60
2023-04-02T01:53:24.675Z,80.63
2023-04-02T01:55:55.935Z,80.83
2023-04-02T01:58:27.251Z,80.74
2023-04-02T02:01:02.349Z,80.82
2023-04-02T02:03:30.476Z,80.66
2023-04-02T02:05:58.506Z,80.69
2023-04-02T02:08:25.590Z,80.68
2023-04-02T02:10:52.386Z,80.63
2023-04-02T02:13:19.216Z,80.59
2023-04-02T02:15:46.674Z,80.63
2023-04-02T02:18:14.291Z,80.65
2023-04-02T02:20:42.057Z,81.04
2023-04-02T02:23:13.076Z,80.95
2023-04-02T02:25:41.307Z,80.77
2023-04-02T02:28:15.167Z,80.82
2023-04-02T02:30:49.262Z,80.68
2023-04-02T02:33:16.479Z,80.71
2023-04-02T02:35:52.657Z,80.81
2023-04-02T02:38:35.569Z,80.82
2023-04-02T02:41:16.588Z,81.02
2023-04-02T02:43:53.321Z,81.01
2023-04-02T02:46:25.448Z,81.00
2023-04-02T02:48:55.885Z,81.09
2023-04-02T02:51:44.210Z,81.06
2023-04-02T02:54:15.421Z,81.19
2023-04-02T02:56:48.400Z,81.12
2023-04-02T02:59:17.340Z,81.09
2023-04-02T03:01:45.851Z,81.00
2023-04-02T03:04:14.750Z,80.98
2023-04-02T03:06:41.723Z,81.02
2023-04-02T03:09:39.869Z,80.88
2023-04-02T03:12:37.410Z,80.73
2023-04-02T03:15:27.476Z,80.88
2023-04-02T03:18:06.298Z,80.86
2023-04-02T03:20:51.727Z,80.88
2023-04-02T03:23:37.435Z,80.67
2023-04-02T03:26:12.437Z,80.46
2023-04-02T03:28:46.522Z,80.57
2023-04-02T03:31:24.134Z,80.71
2023-04-02T03:33:58.530Z,80.70
2023-04-02T03:36:34.823Z,80.81
2023-04-02T03:39:06.550Z,80.87
2023-04-02T03:41:51.032Z,80.90
2023-04-02T03:44:30.521Z,80.63
2023-04-02T03:47:06.105Z,80.75
2023-04-02T03:49:48.103Z,80.78
2023-04-02T03:52:26.665Z,80.96
2023-04-02T03:54:57.309Z,81.07
2023-04-02T03:57:36.505Z,81.11
2023-04-02T04:00:05.158Z,80.71
2023-04-02T04:02:49.784Z,80.75
2023-04-02T04:05:26.249Z,80.68
2023-04-02T04:07:59.959Z,80.86
2023-04-02T04:10:29.373Z,80.62
2023-04-02T04:13:03.106Z,80.61
2023-04-02T04:15:35.093Z,80.51
2023-04-02T04:18:19.615Z,80.52
2023-04-02T04:21:01.288Z,80.35
2023-04-02T04:23:37.263Z,80.17
2023-04-02T04:26:31.133Z,79.86
2023-04-02T04:29:15.625Z,79.88
2023-04-02T04:31:49.525Z,80.86
2023-04-02T04:34:23.114Z,81.85
2023-04-02T04:36:57.515Z,83.00
2023-04-02T04:39:40.091Z,83.41
2023-04-02T04:42:11.938Z,84.12
2023-04-02T04:44:46.565Z,84.74
2023-04-02T04:47:25.012Z,84.79
2023-04-02T04:49:56.588Z,85.44
2023-04-02T04:52:33.764Z,85.76
2023-04-02T04:55:00.852Z,85.96
2023-04-02T04:57:34.095Z,86.32
2023-04-02T05:00:13.061Z,86.55
2023-04-02T05:02:49.530Z,86.66
2023-04-02T05:05:21.914Z,86.78
2023-04-02T05:07:57.877Z,87.00
2023-04-02T05:10:48.134Z,86.96
2023-04-02T05:13:29.480Z,86.95
2023-04-02T05:16:18.759Z,87.04
2023-04-02T05:18:52.619Z,87.74
2023-04-02T05:21:38.010Z,88.12
2023-04-02T05:24:20.927Z,87.18
2023-04-02T05:26:51.963Z,86.81
2023-04-02T05:29:25.360Z,86.87
2023-04-02T05:32:01.556Z,86.88
2023-04-02T05:34:36.547Z,87.38
2023-04-02T05:37:09.255Z,87.52
2023-04-02T05:39:36.599Z,88.37
2023-04-02T05:42:08.427Z,88.37
2023-04-02T05:45:09.120Z,87.66
2023-04-02T05:47:41.221Z,87.79
2023-04-02T05:50:26.114Z,87.65
2023-04-02T05:53:06.738Z,87.48
2023-04-02T05:55:42.207Z,87.39
2023-04-02T05:58:38.647Z,87.63
2023-04-02T06:01:21.366Z,87.42
2023-04-02T06:03:57.403Z,86.88
2023-04-02T06:06:33.586Z,86.13
2023-04-02T06:09:09.991Z,85.39
2023-04-02T06:11:45.734Z,84.93
2023-04-02T06:14:17.989Z,84.45
2023-04-02T06:16:46.769Z,83.98
2023-04-02T06:19:21.714Z,83.64
2023-04-02T06:21:52.438Z,83.32
2023-04-02T06:24:26.330Z,82.18
2023-04-02T06:27:00.794Z,81.18
2023-04-02T06:29:40.117Z,80.63
2023-04-02T06:32:12.660Z,80.14
2023-04-02T06:34:43.097Z,79.75
2023-04-02T06:37:22.446Z,79.34
2023-04-02T06:39:53.575Z,79.49
2023-04-02T06:42:26.605Z,79.14
2023-04-02T06:45:23.979Z,78.33
2023-04-02T06:48:17.606Z,78.02
2023-04-02T06:50:53.065Z,77.76
2023-04-02T06:53:23.494Z,77.29
2023-04-02T06:55:58.836Z,77.05
2023-04-02T06:58:29.367Z,76.95
2023-04-02T07:00:57.111Z,76.73
2023-04-02T07:03:34.139Z,76.91
2023-04-02T07:06:15.503Z,77.28
2023-04-02T07:08:44.019Z,77.34
2023-04-02T07:11:18.708Z,77.24
2023-04-02T07:13:49.449Z,77.53
2023-04-02T07:16:20.780Z,77.80
2023-04-02T07:18:49.021Z,77.57
2023-04-02T07:21:16.518Z,77.39
2023-04-02T07:23:44.880Z,77.35
2023-04-02T07:26:17.687Z,76.87
2023-04-02T07:28:45.064Z,77.12
2023-04-02T07:31:20.374Z,77.31
2023-04-02T07:33:47.971Z,77.52
2023-04-02T07:36:17.820Z,77.59
2023-04-02T07:38:45.010Z,78.05
2023-04-02T07:41:12.068Z,77.78
2023-04-02T07:43:40.001Z,77.51
2023-04-02T07:46:07.953Z,77.95
2023-04-02T07:48:34.945Z,77.95
2023-04-02T07:51:03.444Z,77.99
2023-04-02T07:53:34.560Z,78.02
2023-04-02T07:56:03.220Z,78.12
2023-04-02T07:58:31.515Z,78.28
2023-04-02T08:00:59.520Z,78.28
2023-04-02T08:03:26.929Z,78.32
2023-04-02T08:05:55.971Z,78.34
2023-04-02T08:08:24.319Z,78.67
2023-04-02T08:10:51.485Z,78.32
2023-04-02T08:13:18.770Z,78.31
2023-04-02T08:15:45.769Z,78.76
2023-04-02T08:18:12.595Z,79.05
2023-04-02T08:20:39.704Z,79.03
2023-04-02T08:23:13.742Z,79.20
2023-04-02T08:25:40.501Z,79.01
2023-04-02T08:28:07.490Z,79.12
2023-04-02T08:30:34.305Z,78.96
2023-04-02T08:33:01.595Z,78.90
2023-04-02T08:35:28.378Z,78.56
2023-04-02T08:37:55.526Z,78.43
2023-04-02T08:40:32.259Z,78.53
2023-04-02T08:43:15.806Z,78.29
2023-04-02T08:46:01.785Z,78.14
2023-04-02T08:48:32.708Z,77.73
2023-04-02T08:51:01.976Z,77.54
2023-04-02T08:53:33.848Z,77.39
2023-04-02T08:56:10.652Z,76.74
2023-04-02T08:58:47.026Z,76.33
2023-04-02T09:01:31.710Z,76.35
2023-04-02T09:03:59.088Z,75.74
2023-04-02T09:06:27.950Z,75.71
2023-04-02T09:08:57.005Z,75.20
2023-04-02T09:11:33.074Z,74.83
2023-04-02T09:14:03.455Z,75.05
2023-04-02T09:16:41.255Z,74.99
2023-04-02T09:19:17.196Z,74.94
2023-04-02T09:21:53.031Z,75.07
2023-04-02T09:24:19.799Z,75.31
2023-04-02T09:26:46.946Z,75.67
2023-04-02T09:29:14.123Z,75.83
2023-04-02T09:31:44.777Z,76.28
2023-04-02T09:34:32.603Z,76.24
2023-04-02T09:37:09.681Z,76.74
2023-04-02T09:39:36.491Z,76.77
2023-04-02T09:42:08.547Z,76.31
2023-04-02T09:44:35.661Z,76.55
2023-04-02T09:47:06.109Z,76.34
2023-04-02T09:49:36.224Z,76.60
2023-04-02T09:52:18.461Z,76.10
2023-04-02T09:54:46.006Z,76.10
2023-04-02T09:57:25.305Z,76.19
2023-04-02T10:00:32.096Z,76.04
2023-04-02T10:03:04.575Z,76.35
2023-04-02T10:08:18.087Z,76.67
2023-04-02T10:10:50.086Z,76.81
2023-04-02T10:13:20.137Z,76.60
2023-04-02T10:16:03.828Z,76.40
2023-04-02T10:18:40.250Z,76.62
2023-04-02T10:21:10.474Z,76.10
2023-04-02T10:23:37.200Z,75.79
2023-04-02T10:26:20.439Z,75.91
2023-04-02T10:28:59.395Z,75.71
2023-04-02T10:31:34.235Z,75.53
2023-04-02T10:34:07.430Z,75.92
2023-04-02T10:36:52.663Z,75.73
2023-04-02T10:39:39.450Z,76.05
2023-04-02T10:42:22.945Z,76.19
2023-04-02T10:45:17.296Z,76.01
2023-04-02T10:47:53.803Z,76.31
2023-04-02T10:50:45.792Z,76.27
2023-04-02T10:53:27.091Z,76.53
2023-04-02T10:56:03.456Z,76.93
2023-04-02T10:58:34.520Z,76.96
2023-04-02T11:01:08.112Z,76.74
2023-04-02T11:03:40.363Z,77.02
2023-04-02T11:06:19.006Z,77.16
2023-04-02T11:08:50.657Z,76.48
2023-04-02T11:11:22.723Z,76.23
2023-04-02T11:13:57.204Z,76.90
2023-04-02T11:16:24.817Z,76.58
2023-04-02T11:19:22.371Z,76.52
2023-04-02T11:21:59.305Z,76.22
2023-04-02T11:24:33.671Z,76.36
2023-04-02T11:27:11.310Z,76.33
2023-04-02T11:29:41.100Z,75.94
2023-04-02T11:32:25.431Z,75.84
2023-04-02T11:35:05.245Z,75.64
2023-04-02T11:37:33.809Z,75.72
2023-04-02T11:40:01.803Z,75.70
2023-04-02T11:42:29.804Z,74.88
2023-04-02T11:45:01.140Z,74.53
2023-04-02T11:47:30.017Z,74.17
2023-04-02T11:50:01.628Z,74.16
2023-04-02T11:52:30.722Z,73.96
2023-04-02T11:55:01.793Z,74.00
2023-04-02T11:57:51.144Z,74.12
2023-04-02T12:00:42.207Z,74.25
2023-04-02T12:03:30.170Z,74.68
2023-04-02T12:06:10.733Z,74.89
2023-04-02T12:08:58.311Z,75.08
2023-04-02T12:11:36.624Z,74.52
2023-04-02T12:14:23.104Z,74.56
2023-04-02T12:16:50.059Z,74.01
2023-04-02T12:19:17.129Z,73.91
2023-04-02T12:21:47.517Z,73.70
2023-04-02T12:24:21.527Z,73.95
2023-04-02T12:26:48.426Z,74.44
2023-04-02T12:29:30.930Z,73.89
2023-04-02T12:31:59.873Z,73.46
2023-04-02T12:34:29.513Z,72.80
2023-04-02T12:36:59.737Z,72.86
2023-04-02T12:39:28.505Z,72.52
2023-04-02T12:41:57.075Z,71.93
2023-04-02T12:44:27.450Z,71.72
2023-04-02T12:46:55.482Z,71.89
2023-04-02T12:49:42.779Z,71.61
2023-04-02T12:52:13.347Z,72.06
2023-04-02T12:54:48.724Z,72.01
2023-04-02T12:57:32.822Z,72.45
2023-04-02T13:00:25.101Z,72.60
2023-04-02T13:02:59.385Z,72.36
2023-04-02T13:05:38.104Z,72.63
2023-04-02T13:08:06.062Z,72.88
2023-04-02T13:10:33.192Z,73.16
2023-04-02T13:13:03.213Z,72.98
2023-04-02T13:15:33.144Z,72.80
2023-04-02T13:18:23.236Z,72.52
2023-04-02T13:20:59.537Z,71.99
2023-04-02T13:23:27.389Z,71.54
2023-04-02T13:25:54.991Z,71.68
2023-04-02T13:28:21.862Z,71.95
2023-04-02T13:30:48.921Z,72.04
2023-04-02T13:33:16.233Z,71.72
2023-04-02T13:35:44.535Z,72.51
2023-04-02T13:38:11.369Z,72.87
2023-04-02T13:40:39.175Z,72.81
2023-04-02T13:43:07.440Z,73.05
2023-04-02T13:45:38.071Z,73.02
2023-04-02T13:48:05.883Z,73.54
2023-04-02T13:50:35.122Z,73.37
2023-04-02T13:53:10.376Z,73.64
2023-04-02T13:55:40.840Z,73.75
2023-04-02T13:58:08.425Z,74.28
2023-04-02T14:00:37.886Z,74.36
2023-04-02T14:03:18.601Z,74.29
2023-04-02T14:05:49.856Z,73.73
2023-04-02T14:08:46.940Z,73.36
2023-04-02T14:11:18.898Z,73.25
2023-04-02T14:13:57.847Z,73.47
2023-04-02T14:16:43.132Z,73.34
2023-04-02T14:19:27.877Z,73.54
2023-04-02T14:22:04.917Z,73.48
2023-04-02T14:24:47.040Z,73.67
2023-04-02T14:27:41.806Z,73.08
2023-04-02T14:30:17.136Z,73.66
2023-04-02T14:33:01.473Z,73.47
2023-04-02T14:35:31.548Z,73.25
2023-04-02T14:38:22.104Z,72.99
2023-04-02T14:40:54.349Z,73.16
2023-04-02T14:43:40.350Z,72.78
2023-04-02T14:46:10.366Z,72.71
2023-04-02T14:48:47.635Z,72.55
2023-04-02T14:51:26.418Z,72.11
2023-04-02T14:54:03.768Z,72.15
2023-04-02T14:56:36.550Z,72.48
2023-04-02T14:59:23.988Z,72.04
2023-04-02T15:01:57.258Z,71.91
2023-04-02T15:04:31.236Z,71.92
2023-04-02T15:07:05.028Z,72.27
2023-04-02T15:09:38.457Z,72.10
2023-04-02T15:12:14.414Z,72.43
2023-04-02T15:14:47.762Z,72.27
2023-04-02T15:17:14.812Z,71.90
2023-04-02T15:19:41.617Z,71.96
2023-04-02T15:22:10.393Z,72.06
2023-04-02T15:24:44.115Z,71.79
2023-04-02T15:27:27.094Z,71.73
2023-04-02T15:30:07.914Z,71.64
2023-04-02T15:32:35.068Z,71.27
2023-04-02T15:35:12.377Z,71.62
2023-04-02T15:37:50.659Z,71.48
2023-04-02T15:40:34.142Z,70.94
2023-04-02T15:43:26.309Z,71.14
2023-04-02T15:46:16.082Z,71.80
2023-04-02T15:48:52.134Z,71.98
2023-04-02T15:51:35.302Z,71.89
2023-04-02T15:54:27.018Z,71.35
2023-04-02T15:57:10.035Z,71.21
2023-04-02T15:59:51.617Z,71.05
2023-04-02T16:02:41.666Z,71.10
2023-04-02T16:05:23.957Z,70.80
2023-04-02T16:08:07.151Z,70.62
2023-04-02T16:10:42.089Z,70.98
2023-04-02T16:13:40.289Z,71.00
2023-04-02T16:16:15.285Z,71.11
2023-04-02T16:19:02.720Z,71.70
2023-04-02T16:21:34.986Z,71.57
2023-04-02T16:24:01.939Z,71.78
2023-04-02T16:27:00.198Z,71.85
2023-04-02T16:29:53.369Z,71.47
2023-04-02T16:32:44.647Z,71.41
2023-04-02T16:35:43.018Z,71.22
2023-04-02T16:38:14.010Z,71.72
2023-04-02T16:41:04.757Z,71.61
2023-04-02T16:43:56.025Z,71.32
2023-04-02T16:46:35.900Z,71.39
2023-04-02T16:49:20.932Z,71.48
2023-04-02T16:51:56.979Z,71.63
2023-04-02T16:54:24.887Z,71.95
2023-04-02T16:57:15.919Z,72.05
2023-04-02T16:59:57.602Z,72.00
2023-04-02T17:02:33.174Z,71.99
2023-04-02T17:05:32.692Z,71.95
2023-04-02T17:08:14.909Z,72.15
2023-04-02T17:11:05.944Z,72.48
2023-04-02T17:13:42.282Z,72.13
2023-04-02T17:16:18.466Z,72.23
2023-04-02T17:18:48.013Z,72.38
2023-04-02T17:21:19.035Z,72.00
2023-04-02T17:24:06.454Z,71.92
2023-04-02T17:26:37.462Z,72.41
2023-04-02T17:29:09.154Z,72.39
2023-04-02T17:31:38.035Z,72.46
2023-04-02T17:34:15.024Z,72.11
2023-04-02T17:37:00.850Z,72.22
2023-04-02T17:39:52.747Z,71.90
2023-04-02T17:42:49.960Z,72.13
2023-04-02T17:45:28.628Z,71.84
2023-04-02T17:48:06.274Z,71.65
2023-04-02T17:50:40.444Z,71.90
2023-04-02T17:53:22.700Z,71.73
2023-04-02T17:56:06.955Z,71.85
2023-04-02T17:58:52.504Z,72.21
2023-04-02T18:01:28.864Z,72.02
2023-04-02T18:04:12.597Z,72.45
2023-04-02T18:06:39.533Z,72.37
2023-04-02T18:09:27.497Z,72.42
2023-04-02T18:12:09.852Z,72.45
2023-04-02T18:14:53.276Z,72.64
2023-04-02T18:17:46.359Z,72.66
2023-04-02T18:20:28.779Z,72.89
2023-04-02T18:23:10.781Z,73.14
2023-04-02T18:25:42.870Z,73.07
2023-04-02T18:28:23.563Z,72.98
2023-04-02T18:30:59.048Z,73.27
2023-04-02T18:33:39.526Z,73.35
2023-04-02T18:36:11.474Z,73.31
2023-04-02T18:38:46.406Z,73.60
2023-04-02T18:41:15.351Z,73.64
2023-04-02T18:43:57.613Z,73.64
2023-04-02T18:46:24.476Z,73.85
2023-04-02T18:49:14.121Z,73.80
2023-04-02T18:51:41.711Z,73.91
2023-04-02T18:54:09.680Z,73.78
2023-04-02T18:56:38.968Z,73.88
2023-04-02T18:59:06.957Z,74.21
2023-04-02T19:01:39.224Z,74.50
2023-04-02T19:04:09.816Z,74.50
2023-04-02T19:06:41.947Z,74.46
2023-04-02T19:09:24.307Z,74.27
2023-04-02T19:11:53.104Z,74.39
2023-04-02T19:14:23.335Z,74.41
2023-04-02T19:17:21.417Z,74.41
2023-04-02T19:19:55.730Z,74.09
2023-04-02T19:22:37.398Z,73.96
2023-04-02T19:25:04.176Z,74.25
2023-04-02T19:27:39.273Z,73.80
2023-04-02T19:30:24.664Z,74.17
2023-04-02T19:32:51.388Z,74.12
2023-04-02T19:35:34.952Z,74.36
2023-04-02T19:38:25.046Z,74.51
2023-04-02T19:41:07.337Z,74.33
2023-04-02T19:43:34.142Z,74.34
2023-04-02T19:46:02.726Z,74.38
2023-04-02T19:48:51.586Z,74.35
2023-04-02T19:51:18.385Z,74.36
2023-04-02T19:53:45.104Z,74.49
2023-04-02T19:56:11.901Z,74.23
2023-04-02T19:58:38.659Z,74.09
2023-04-02T20:01:05.647Z,74.39
2023-04-02T20:03:32.753Z,74.43
2023-04-02T20:06:00.136Z,74.56
2023-04-02T20:08:27.783Z,74.67
2023-04-02T20:10:55.833Z,74.86
2023-04-02T20:13:22.626Z,74.45
2023-04-02T20:15:51.357Z,74.54
2023-04-02T20:18:20.267Z,74.53
2023-04-02T20:20:48.805Z,74.59
2023-04-02T20:23:16.926Z,74.77
2023-04-02T20:25:52.863Z,74.44
2023-04-02T20:28:21.520Z,74.57
2023-04-02T20:30:50.263Z,74.37
2023-04-02T20:33:19.471Z,74.49
2023-04-02T20:35:47.242Z,74.31
2023-04-02T20:38:14.054Z,74.39
2023-04-02T20:40:42.183Z,73.83
2023-04-02T20:43:10.202Z,73.97
2023-04-02T20:45:38.125Z,73.81
2023-04-02T20:48:05.241Z,73.78
2023-04-02T20:50:32.613Z,73.50
2023-04-02T20:53:00.242Z,73.35
2023-04-02T20:55:27.069Z,73.68
2023-04-02T20:57:54.098Z,73.54
2023-04-02T21:00:21.183Z,73.94
2023-04-02T21:02:48.023Z,73.86
2023-04-02T21:05:14.980Z,74.17
2023-04-02T21:07:41.752Z,74.19
2023-04-02T21:10:09.311Z,74.14
2023-04-02T21:12:36.108Z,74.33
2023-04-02T21:15:03.226Z,74.44
2023-04-02T21:17:30.369Z,74.83
2023-04-02T21:19:57.235Z,75.08
2023-04-02T21:22:23.954Z,74.97
2023-04-02T21:24:50.818Z,74.96
2023-04-02T21:27:17.886Z,74.77
2023-04-02T21:29:44.619Z,74.89
2023-04-02T21:32:20.731Z,75.18
2023-04-02T21:34:48.385Z,75.13
2023-04-02T21:37:15.510Z,75.08
2023-04-02T21:39:42.401Z,75.35
2023-04-02T21:42:11.199Z,75.40
2023-04-02T21:44:37.983Z,75.80
2023-04-02T21:47:04.811Z,75.84
2023-04-02T21:49:31.617Z,76.03
2023-04-02T21:51:58.415Z,76.19
2023-04-02T21:54:25.328Z,76.04
2023-04-02T21:56:52.820Z,76.23
2023-04-02T21:59:19.718Z,76.32
2023-04-02T22:01:50.516Z,76.30
2023-04-02T22:04:20.730Z,76.25
2023-04-02T22:06:47.669Z,76.45
2023-04-02T22:09:18.411Z,76.48
2023-04-02T22:11:48.278Z,76.16
2023-04-02T22:14:15.784Z,76.52
2023-04-02T22:16:43.692Z,76.46
2023-04-02T22:19:13.722Z,76.63
2023-04-02T22:21:41.424Z,76.69
2023-04-02T22:24:12.576Z,76.78
2023-04-02T22:26:40.493Z,76.79
2023-04-02T22:29:08.042Z,76.93
2023-04-02T22:31:35.390Z,76.88
2023-04-02T22:34:04.600Z,76.93
2023-04-02T22:36:31.893Z,77.29
2023-04-02T22:39:00.139Z,77.53
2023-04-02T22:41:29.068Z,77.68
2023-04-02T22:43:57.216Z,77.64
2023-04-02T22:46:25.649Z,77.71
2023-04-02T22:48:53.421Z,77.95
2023-04-02T22:51:22.576Z,78.14
2023-04-02T22:53:50.215Z,78.17
2023-04-02T22:56:19.644Z,78.26
2023-04-02T22:58:46.462Z,78.35
2023-04-02T23:01:18.124Z,78.47
2023-04-02T23:03:45.145Z,78.32
2023-04-02T23:06:14.398Z,78.47
2023-04-02T23:08:41.315Z,78.56
2023-04-02T23:11:14.290Z,78.26
2023-04-02T23:13:42.130Z,78.15
2023-04-02T23:16:12.650Z,78.00
2023-04-02T23:18:42.332Z,77.94
2023-04-02T23:21:09.891Z,77.86
2023-04-02T23:23:37.434Z,77.90
2023-04-02T23:26:04.407Z,77.92
2023-04-02T23:28:31.233Z,77.93
2023-04-02T23:30:58.046Z,77.78
2023-04-02T23:33:24.847Z,77.69
2023-04-02T23:35:51.855Z,77.44
2023-04-02T23:38:18.592Z,77.43
2023-04-02T23:40:45.437Z,77.60
2023-04-02T23:43:12.205Z,77.70
2023-04-02T23:45:39.198Z,77.70
2023-04-02T23:48:06.245Z,77.63
2023-04-02T23:50:33.180Z,77.62
2023-04-02T23:53:00.274Z,77.54
2023-04-02T23:55:27.141Z,77.48
2023-04-02T23:57:53.936Z,77.34
